22 mei 2022

Tijd Code Weer Temp. Zicht Wolken Wind METAR/SPECI
08:55
V
13 °C 10 km+ - 200°   200° 8 kt METAR EHMA 220655Z AUTO 20008KT 170V240 9999 NCD 13/11 Q1017
08:25
V
12 °C 10 km+ - 200°   200° 9 kt METAR EHMA 220625Z AUTO 20009KT 9999 NCD 12/11 Q1017
07:55
V
12 °C 10 km+ - 200°   200° 10 kt METAR EHMA 220555Z AUTO 20010KT 9999 NCD 12/10 Q1017
07:25
V
12 °C 10 km+ - 200°   200° 10 kt METAR EHMA 220525Z AUTO 20010KT 9999 NSC 12/10 Q1017
06:55
V
12 °C 10 km+ - 200°   200° 6 kt METAR EHMA 220455Z AUTO 20006KT 9999 NSC 12/10 Q1017
06:25
V
12 °C 10 km+ - 210°   210° 3 kt METAR EHMA 220425Z AUTO 21003KT 9999 NSC 12/10 Q1017
05:55
V
12 °C 10 km+ - 200°   200° 4 kt METAR EHMA 220355Z AUTO 20004KT 9999 NSC 12/09 Q1017
05:25
V
13 °C 10 km+ - 250°   250° 5 kt METAR EHMA 220325Z AUTO 25005KT 210V270 9999 NSC 13/07 Q1018
04:55
V
13 °C 10 km+ - 260°   260° 4 kt METAR EHMA 220255Z AUTO 26004KT 220V290 9999 NSC 13/09 Q1018
04:25
V
13 °C 10 km+ - 280°   280° 6 kt METAR EHMA 220225Z AUTO 28006KT 9999 NSC 13/09 Q1018
03:55
V
13 °C 10 km+ - 270°   270° 6 kt METAR EHMA 220155Z AUTO 27006KT 9999 NSC 13/09 Q1018
03:25
V
13 °C 10 km+ - 280°   280° 8 kt METAR EHMA 220125Z AUTO 28008KT 9999 NSC 13/09 Q1018
02:55
V
13 °C 10 km+ - 280°   280° 7 kt METAR EHMA 220055Z AUTO 28007KT 9999 NSC 13/08 Q1018
02:25
V
13 °C 10 km+ - 290°   290° 7 kt METAR EHMA 220025Z AUTO 29007KT 9999 NSC 13/09 Q1018
01:55
V
13 °C 10 km+ - 290°   290° 7 kt METAR EHMA 212355Z AUTO 29007KT 9999 NSC 13/09 Q1019
01:25
V
13 °C 10 km+ - 290°   290° 8 kt METAR EHMA 212325Z AUTO 29008KT 9999 NSC 13/08 Q1019
00:55
V
13 °C 10 km+ - 270°   270° 7 kt METAR EHMA 212255Z AUTO 27007KT 9999 NSC 13/08 Q1019
00:25
V
13 °C 10 km+ - 260°   260° 7 kt METAR EHMA 212225Z AUTO 26007KT 9999 NSC 13/08 Q1019

21 mei 2022

Tijd Code Weer Temp. Zicht Wolken Wind METAR/SPECI
23:55
V
13 °C 10 km+ - 240°   240° 6 kt METAR EHMA 212155Z AUTO 24006KT 9999 NSC 13/10 Q1019
23:25
V
13 °C 10 km+ - 250°   250° 6 kt METAR EHMA 212125Z AUTO 25006KT 9999 NSC 13/09 Q1019
22:55
V
13 °C 10 km+ - 280°   280° 7 kt METAR EHMA 212055Z AUTO 28007KT 9999 NSC 13/09 Q1020
22:25
V
13 °C 10 km+ - 290°   290° 9 kt METAR EHMA 212025Z AUTO 29009KT 9999 NSC 13/09 Q1020
21:55
V
13 °C 10 km+ - 290°   290° 10 kt METAR EHMA 211955Z AUTO 29010KT 9999 NSC 13/08 Q1020
21:25
V
13 °C 10 km+ - 300°   300° 11 kt METAR EHMA 211925Z AUTO 30011KT 9999 NSC 13/08 Q1020
20:55
V
13 °C 10 km+ - 290°   290° 12 kt METAR EHMA 211855Z AUTO 29012KT 9999 NSC 13/08 Q1020
20:25
V
13 °C 10 km+ - 290°   290° 11 kt METAR EHMA 211825Z AUTO 29011KT 9999 FEW014 13/09 Q1019
19:55
V
13 °C 10 km+ - 290°   290° 12 kt METAR EHMA 211755Z AUTO 29012KT 9999 FEW016 13/09 Q1020
19:25
V
13 °C 10 km+ - 290°   290° 13 kt METAR EHMA 211725Z AUTO 29013KT 9999 FEW014 13/09 Q1020
18:55
V
13 °C 10 km+ - 290°   290° 12 kt METAR EHMA 211655Z AUTO 29012KT 9999 FEW014 13/09 Q1019
18:25
V
13 °C 10 km+ - 290°   290° 13 kt METAR EHMA 211625Z AUTO 29013KT 9999 FEW013 13/09 Q1020
17:55
V
13 °C 10 km+ - 280°   280° 13 kt METAR EHMA 211555Z AUTO 28013KT 9999 FEW011 13/09 Q1020
17:25
V
13 °C 10 km+ - 290°   290° 13 kt METAR EHMA 211525Z AUTO 29013KT 9999 FEW011 13/10 Q1020
16:55
V
13 °C 10 km+ - 280°   280° 15 kt METAR EHMA 211455Z AUTO 28015KT 9999 FEW011 13/10 Q1020
16:25
V
13 °C 10 km+ - 290°   290° 15 kt METAR EHMA 211425Z AUTO 29015KT 9999 FEW010 13/10 Q1020
15:55
V
13 °C 10 km+ - 280°   280° 15 kt METAR EHMA 211355Z AUTO 28015KT 9999 FEW010 13/10 Q1020
15:25
V
13 °C 10 km+ - 280°   280° 15 kt METAR EHMA 211325Z AUTO 28015KT 9999 FEW010 13/10 Q1020
14:55
V
13 °C 10 km+ - 280°   280° 16 kt METAR EHMA 211255Z AUTO 28016KT 9999 FEW011 13/10 Q1020
14:25
V
13 °C 10 km+ - 290°   290° 17 kt METAR EHMA 211225Z AUTO 29017KT 9999 FEW011 13/10 Q1019
13:55
V
13 °C 10 km+ - 290°   290° 18 kt METAR EHMA 211155Z AUTO 29018KT 9999 FEW011 13/10 Q1019
13:25
V
13 °C 10 km+ - 280°   280° 18 kt METAR EHMA 211125Z AUTO 28018KT 9999 SCT011 13/10 Q1019
12:55
V
13 °C 10 km+ - 290°   290° 19 kt METAR EHMA 211055Z AUTO 29019KT 9999 FEW012 13/10 Q1018
12:25
V
13 °C 10 km+ - 290°   290° 19 kt METAR EHMA 211025Z AUTO 29019KT 9999 FEW011 13/10 Q1018
11:55
V
13 °C 10 km+ - 280°   280° 19 kt METAR EHMA 210955Z AUTO 28019KT 9999 FEW011 13/10 Q1018
11:25
V
13 °C 10 km+ - 290°   290° 21 kt METAR EHMA 210925Z AUTO 29021KT 9999 FEW012 13/10 Q1018
10:55
V
13 °C 10 km+ - 290°   290° 21 kt METAR EHMA 210855Z AUTO 29021KT 9999 SCT012 13/10 Q1017
10:25
V
13 °C 10 km+ - 290°   290° 21 kt METAR EHMA 210825Z AUTO 29021KT 9999 FEW012 SCT014 13/10 Q1017
09:55
V
13 °C 10 km+ - 290°   290° 21 kt METAR EHMA 210755Z AUTO 29021KT 9999 FEW012 SCT014 13/10 Q1017
09:25
V
13 °C 10 km+ - 290°   290° 22 kt METAR EHMA 210725Z AUTO 29022KT 9999 SCT011 SCT014 13/10 Q1017
08:55
V
13 °C 10 km+ - 290°   290° 21 kt METAR EHMA 210655Z AUTO 29021KT 9999 FEW011 SCT014 13/10 Q1016
08:25
M
13 °C 10 km+ 1.200 ft 280°   280° 22 kt METAR EHMA 210625Z AUTO 28022KT 9999 FEW010 BKN012 13/10 Q1016
07:55
M
13 °C 10 km+ 1.300 ft 280°   280° 22 kt METAR EHMA 210555Z AUTO 28022KT 9999 FEW010 BKN013 BKN015 13/10 Q1015
07:25
M
13 °C 10 km+ 1.400 ft 290°   290° 24 kt METAR EHMA 210525Z AUTO 29024KT 9999 FEW012 BKN014 13/10 Q1015
06:55
V
13 °C 10 km+ - 280°   280° 25 kt METAR EHMA 210455Z AUTO 28025KT 9999 FEW012 SCT014 13/10 Q1015
06:25
V
13 °C 10 km+ - 280°   280° 25 kt METAR EHMA 210425Z AUTO 28025KT 9999 FEW011 13/10 Q1015
05:55
V
13 °C 10 km+ - 280°   280° 26 kt METAR EHMA 210355Z AUTO 28026KT 9999 FEW011 SCT013 13/10 Q1014
05:25
M
14 °C 10 km+ 1.600 ft 270°   270° 25 kt METAR EHMA 210325Z AUTO 27025KT 9999 SCT013 BKN016 BKN031 14/11 Q1014
04:55
V
14 °C 10 km+ - 260°   260° 22 kt METAR EHMA 210255Z AUTO 26022KT 9999 FEW015 SCT037 14/11 Q1014
04:25
V
14 °C 10 km+ 4.000 ft 250°   250° 22 kt METAR EHMA 210225Z AUTO 25022KT 9999 FEW011 SCT034 BKN040 14/12 Q1014
03:55
V
14 °C 10 km+ 3.200 ft 240°   240° 22 kt METAR EHMA 210155Z AUTO 24022KT 9999 FEW011 FEW015CB SCT020 BKN032 14/12 Q1014 RERA
03:25
V
14 °C 10 km+ 3.300 ft 240°   240° 22 kt METAR EHMA 210125Z AUTO 24022KT 9999 FEW011 SCT015 BKN033 14/12 Q1014
02:55
V
14 °C 10 km+ 4.100 ft 240°   240° 22 kt METAR EHMA 210055Z AUTO 24022KT 9999 FEW012 SCT016 BKN041 14/12 Q1015
02:25
V
13 °C 10 km+ - 220°   220° 16 kt METAR EHMA 210025Z AUTO 22016KT 190V260 9999 FEW014/// 13/11 Q1015
01:55
V
14 °C 10 km+ - 240°   240° 19 kt METAR EHMA 202355Z AUTO 24019KT 9999 NCD 14/10 Q1015
01:25
V
13 °C 10 km+ - 250°   250° 16 kt METAR EHMA 202325Z AUTO 25016KT 9999 NSC 13/10 Q1015
00:55
V
12 °C 10 km+ - 260°   260° 14 kt METAR EHMA 202255Z AUTO 26014KT 9999 NSC 12/09 Q1015
00:25
V
12 °C 10 km+ - 250°   250° 15 kt METAR EHMA 202225Z AUTO 25015KT 9999 NSC 12/10 Q1015

20 mei 2022

Tijd Code Weer Temp. Zicht Wolken Wind METAR/SPECI
23:55
V
12 °C 10 km+ - 270°   270° 16 kt METAR EHMA 202155Z AUTO 27016KT 9999 FEW013 12/09 Q1016
23:25
V
12 °C 10 km+ - 270°   270° 17 kt METAR EHMA 202125Z AUTO 27017KT 9999 FEW010 12/09 Q1015
22:55
V
12 °C 10 km+ - 280°   280° 17 kt METAR EHMA 202055Z AUTO 28017KT 9999 FEW008 SCT039 12/09 Q1015
22:25
V
12 °C 10 km+ 3.800 ft 280°   280° 13 kt METAR EHMA 202025Z AUTO 28013KT 9999 FEW005 FEW015CB SCT026 BKN038 12/10 Q1015
21:55
M
11 °C 6 km 2.500 ft 290°   290° 16 kt METAR EHMA 201955Z AUTO 29016KT 6000 -SHRA FEW004 SCT014 BKN025 11/10 Q1015 REDZ
21:25
M
11 °C 10 km+ 2.000 ft 290°   290° 15 kt METAR EHMA 201925Z AUTO 29015KT 9999 DZ FEW004 SCT016 BKN020 11/10 Q1014
20:55
I
11 °C 4,3 km 2.200 ft 280°   280° 18 kt METAR EHMA 201855Z AUTO 28018KT 4300 -RA FEW004 SCT013 BKN022 11/09 Q1014 RERA REDZ
20:25
V
12 °C 10 km+ - 300°   300° 12 kt METAR EHMA 201825Z AUTO 30012KT 9999 FEW009 SCT043 12/10 Q1014
19:55
V
12 °C 10 km+ - 330°   330° 6 kt METAR EHMA 201755Z AUTO 33006KT 9999 NSC 12/07 Q1013
19:25
V
12 °C 10 km+ - 350°   350° 3 kt METAR EHMA 201725Z AUTO 35003KT 9999 -RA FEW047 12/08 Q1013
18:55
V
12 °C 10 km+ - 010°   010° 3 kt METAR EHMA 201655Z AUTO 01003KT 9999 -SHRA SCT017CB 12/07 Q1013 RERA
18:25
M
12 °C 9 km 2.100 ft 350°   350° 2 kt METAR EHMA 201625Z AUTO 35002KT 9000 SHRA BKN021CB 12/07 Q1014
17:55
M
13 °C 8 km 1.500 ft 020°   020° 6 kt METAR EHMA 201555Z AUTO 02006KT 340V050 8000 -SHRA BKN015CB 13/10 Q1014 RERA
17:25
V
14 °C 9 km - 010°   010° 4 kt METAR EHMA 201525Z AUTO 01004KT 9000 RA FEW002 SCT015CB 14/11 Q1014
16:55
V
15 °C 10 km+ - 050°   050° 5 kt METAR EHMA 201455Z AUTO 05005KT 020V090 9999 -SHRA SCT001 SCT002 SCT029CB 15/07 Q1014 RERA
16:25
V
15 °C 10 km+ - 110°   110° 3 kt METAR EHMA 201425Z AUTO 11003KT 9999 -SHRA FEW001 FEW015CB 15/12 Q1015 REDZ
15:55
V
15 °C 10 km+ - 110°   110° 4 kt METAR EHMA 201355Z AUTO 11004KT 050V150 9999 -DZ NSC 15/12 Q1014
15:25
V
16 °C 10 km+ - 090°   090° 6 kt METAR EHMA 201325Z AUTO 09006KT 030V140 9999 NSC 16/11 Q1014
14:55
V
16 °C 10 km+ - 120°   120° 9 kt METAR EHMA 201255Z AUTO 12009KT 9999 NSC 16/10 Q1014
14:25
V
15 °C 10 km+ - 120°   120° 7 kt METAR EHMA 201225Z AUTO 12007KT 9999 NSC 15/11 Q1016
13:55
V
15 °C 10 km+ - 100°   100° 7 kt METAR EHMA 201155Z AUTO 10007KT 9999 NSC 15/10 Q1016
13:25
V
15 °C 10 km+ - 100°   100° 7 kt METAR EHMA 201125Z AUTO 10007KT 9999 NSC 15/10 Q1017
12:55
V
15 °C 10 km+ - 110°   110° 6 kt METAR EHMA 201055Z AUTO 11006KT 9999 NSC 15/10 Q1018
12:25
V
15 °C 10 km+ - 110°   110° 7 kt METAR EHMA 201025Z AUTO 11007KT 9999 NSC 15/10 Q1018
11:55
V
15 °C 10 km+ - 130°   130° 8 kt METAR EHMA 200955Z AUTO 13008KT 9999 NSC 15/10 Q1019
11:25
V
15 °C 10 km+ - 130°   130° 8 kt METAR EHMA 200925Z AUTO 13008KT 9999 NSC 15/10 Q1019
10:55
V
14 °C 10 km+ - 140°   140° 9 kt METAR EHMA 200855Z AUTO 14009KT 9999 NSC 14/09 Q1020
10:25
V
14 °C 10 km+ - 130°   130° 8 kt METAR EHMA 200825Z AUTO 13008KT 9999 NSC 14/10 Q1020
09:55
V
13 °C 10 km+ - 130°   130° 8 kt METAR EHMA 200755Z AUTO 13008KT 9999 NSC 13/10 Q1020
09:25
V
13 °C 10 km+ - 120°   120° 4 kt METAR EHMA 200725Z AUTO 12004KT 9999 NSC 13/10 Q1020
08:55
V
13 °C 10 km+ - 120°   120° 3 kt METAR EHMA 200655Z AUTO 12003KT 050V150 9999 NSC 13/11 Q1020
Oudere gegevens

Installeer onze app

Gemakkelijke toegang tot al het luchtvaartweer op je mobiele telefoon en tablet.
Met veel functies die niet op de website beschikbaar zijn, zoals offline ondersteuning en een persoonlijke lijst van vliegvelden.

Met cookies volgen wij en derde partijen jouw internetgedrag binnen onze site. Als je verdergaat gaan we ervan uit dat je dit goedvindt. Meer info